createdAt,value
2019-05-26T00:01:46.960Z,12.6
2019-05-26T00:04:18.564Z,12.3
2019-05-26T00:06:50.536Z,12.1
2019-05-26T00:09:22.166Z,12.5
2019-05-26T00:11:53.961Z,13.0
2019-05-26T00:14:25.587Z,10.3
2019-05-26T00:16:57.190Z,10.4
2019-05-26T00:19:28.734Z,8.3
2019-05-26T00:22:00.598Z,8.2
2019-05-26T00:24:32.170Z,9.6
2019-05-26T00:27:04.159Z,10.8
2019-05-26T00:29:35.756Z,8.9
2019-05-26T00:32:07.673Z,9.1
2019-05-26T00:34:39.241Z,9.1
2019-05-26T00:37:11.061Z,11.5
2019-05-26T00:39:42.619Z,8.2
2019-05-26T00:42:14.726Z,8.5
2019-05-26T00:44:46.422Z,10.7
2019-05-26T00:47:18.065Z,12.7
2019-05-26T00:49:49.580Z,11.1
2019-05-26T00:52:21.397Z,13.4
2019-05-26T00:54:52.971Z,13.9
2019-05-26T00:57:24.996Z,15.0
2019-05-26T00:59:56.518Z,17.9
2019-05-26T01:02:28.162Z,16.5
2019-05-26T01:04:59.894Z,17.8
2019-05-26T01:07:31.514Z,18.9
2019-05-26T01:10:03.119Z,21.0
2019-05-26T01:12:34.857Z,21.9
2019-05-26T01:15:06.450Z,25.0
2019-05-26T01:17:38.141Z,25.7
2019-05-26T01:20:09.768Z,25.8
2019-05-26T01:22:41.527Z,27.0
2019-05-26T01:25:13.164Z,29.8
2019-05-26T01:27:45.172Z,26.0
2019-05-26T01:31:25.562Z,27.7
2019-05-26T01:33:59.336Z,28.3
2019-05-26T01:36:33.063Z,26.6
2019-05-26T01:39:07.032Z,24.0
2019-05-26T01:41:40.759Z,22.7
2019-05-26T01:44:14.643Z,22.5
2019-05-26T01:46:48.451Z,19.8
2019-05-26T01:49:22.562Z,19.0
2019-05-26T01:51:56.165Z,18.7
2019-05-26T01:54:30.049Z,19.1
2019-05-26T01:57:03.696Z,19.5
2019-05-26T01:59:37.444Z,17.3
2019-05-26T02:02:11.090Z,15.9
2019-05-26T02:04:44.827Z,14.7
2019-05-26T02:07:18.641Z,12.0
2019-05-26T02:09:52.440Z,10.6
2019-05-26T02:12:26.170Z,10.5
2019-05-26T02:15:00.152Z,8.4
2019-05-26T02:17:33.770Z,8.2
2019-05-26T02:20:07.563Z,8.5
2019-05-26T02:22:41.304Z,9.1
2019-05-26T02:25:15.213Z,7.0
2019-05-26T02:27:49.106Z,7.3
2019-05-26T02:30:23.307Z,6.4
2019-05-26T02:32:55.448Z,9.4
2019-05-26T02:35:27.818Z,6.6
2019-05-26T02:37:59.977Z,10.3
2019-05-26T02:40:32.593Z,5.9
2019-05-26T02:43:04.793Z,5.5
2019-05-26T02:45:37.467Z,7.3
2019-05-26T02:48:09.745Z,5.9
2019-05-26T02:50:42.203Z,5.8
2019-05-26T02:53:14.403Z,6.0
2019-05-26T02:55:46.738Z,5.4
2019-05-26T02:58:18.955Z,7.2
2019-05-26T03:00:51.721Z,7.7
2019-05-26T03:03:24.029Z,5.0
2019-05-26T03:05:56.465Z,5.8
2019-05-26T03:08:28.706Z,5.6
2019-05-26T03:11:01.129Z,4.9
2019-05-26T03:13:33.466Z,5.2
2019-05-26T03:16:06.100Z,5.0
2019-05-26T03:18:38.317Z,5.1
2019-05-26T03:21:10.578Z,5.9
2019-05-26T03:23:42.869Z,4.8
2019-05-26T03:26:15.155Z,5.8
2019-05-26T03:28:47.377Z,4.9
2019-05-26T03:31:25.723Z,5.8
2019-05-26T03:33:59.546Z,6.6
2019-05-26T03:36:33.392Z,6.1
2019-05-26T03:39:07.208Z,5.0
2019-05-26T03:41:41.285Z,5.7
2019-05-26T03:44:15.101Z,4.6
2019-05-26T03:46:49.005Z,4.8
2019-05-26T03:49:22.710Z,5.6
2019-05-26T03:51:56.439Z,3.9
2019-05-26T03:54:30.144Z,3.5
2019-05-26T03:57:04.015Z,4.9
2019-05-26T03:59:38.013Z,3.8
2019-05-26T04:02:12.324Z,4.2
2019-05-26T04:04:46.105Z,5.0
2019-05-26T04:07:19.929Z,3.2
2019-05-26T04:10:04.384Z,4.2
2019-05-26T04:12:36.709Z,3.9
2019-05-26T04:15:10.490Z,2.8
2019-05-26T04:17:44.421Z,3.1
2019-05-26T04:20:18.188Z,3.5
2019-05-26T04:22:52.128Z,4.5
2019-05-26T04:25:26.033Z,4.9
2019-05-26T04:27:59.850Z,4.3
2019-05-26T04:30:33.567Z,3.6
2019-05-26T04:33:07.495Z,2.8
2019-05-26T04:35:41.279Z,3.4
2019-05-26T04:38:15.178Z,2.7
2019-05-26T04:40:48.835Z,3.6
2019-05-26T04:43:23.378Z,4.3
2019-05-26T04:45:57.153Z,6.1
2019-05-26T04:48:31.318Z,3.9
2019-05-26T04:51:05.061Z,3.9
2019-05-26T04:53:38.962Z,3.1
2019-05-26T04:56:12.692Z,3.3
2019-05-26T04:58:46.499Z,3.8
2019-05-26T05:01:20.230Z,3.1
2019-05-26T05:03:54.524Z,3.6
2019-05-26T05:06:28.410Z,4.5
2019-05-26T05:09:02.303Z,2.7
2019-05-26T05:11:36.049Z,2.8
2019-05-26T05:14:09.931Z,4.4
2019-05-26T05:16:43.786Z,5.1
2019-05-26T05:19:17.933Z,4.3
2019-05-26T05:21:50.023Z,3.7
2019-05-26T05:24:22.466Z,4.7
2019-05-26T05:26:54.632Z,3.4
2019-05-26T05:29:27.135Z,3.5
2019-05-26T05:31:25.879Z,4.5
2019-05-26T05:34:00.018Z,3.4
2019-05-26T05:36:34.007Z,4.7
2019-05-26T05:39:07.675Z,2.8
2019-05-26T05:41:41.415Z,2.5
2019-05-26T05:44:15.380Z,3.8
2019-05-26T05:46:49.126Z,3.9
2019-05-26T05:49:23.111Z,3.1
2019-05-26T05:51:56.899Z,4.3
2019-05-26T05:54:30.512Z,3.3
2019-05-26T05:57:04.283Z,3.1
2019-05-26T05:59:37.906Z,3.0
2019-05-26T06:02:11.821Z,7.4
2019-05-26T06:04:45.529Z,4.6
2019-05-26T06:07:19.501Z,3.5
2019-05-26T06:09:53.310Z,3.2
2019-05-26T06:12:27.236Z,4.5
2019-05-26T06:15:01.019Z,3.8
2019-05-26T06:17:35.067Z,3.7
2019-05-26T06:20:08.893Z,3.0
2019-05-26T06:22:42.677Z,3.9
2019-05-26T06:25:16.661Z,3.7
2019-05-26T06:27:51.118Z,3.1
2019-05-26T06:30:24.919Z,3.6
2019-05-26T06:32:58.765Z,4.4
2019-05-26T06:35:32.885Z,4.0
2019-05-26T06:38:07.128Z,2.8
2019-05-26T06:40:40.911Z,2.9
2019-05-26T06:43:15.069Z,3.6
2019-05-26T06:45:48.993Z,5.4
2019-05-26T06:48:26.469Z,4.1
2019-05-26T06:51:00.904Z,3.7
2019-05-26T06:53:37.402Z,2.7
2019-05-26T06:56:11.397Z,4.1
2019-05-26T06:58:45.431Z,3.2
2019-05-26T07:01:19.195Z,3.0
2019-05-26T07:03:53.005Z,2.4
2019-05-26T07:06:26.656Z,2.4
2019-05-26T07:09:00.485Z,2.5
2019-05-26T07:11:49.305Z,2.3
2019-05-26T07:14:16.887Z,3.1
2019-05-26T07:16:50.616Z,2.8
2019-05-26T07:19:24.568Z,2.5
2019-05-26T07:21:58.245Z,3.4
2019-05-26T07:24:32.527Z,2.6
2019-05-26T07:27:06.225Z,2.2
2019-05-26T07:29:40.163Z,2.1
2019-05-26T07:31:25.102Z,2.8
2019-05-26T07:33:58.798Z,3.9
2019-05-26T07:36:32.803Z,2.3
2019-05-26T07:39:06.511Z,2.7
2019-05-26T07:41:40.629Z,2.3
2019-05-26T07:44:14.457Z,3.4
2019-05-26T07:46:48.333Z,3.3
2019-05-26T07:49:22.106Z,5.2
2019-05-26T07:51:55.849Z,4.8
2019-05-26T07:54:29.663Z,7.0
2019-05-26T07:57:03.719Z,5.8
2019-05-26T07:59:37.474Z,10.2
2019-05-26T08:02:11.414Z,10.4
2019-05-26T08:04:45.474Z,9.0
2019-05-26T08:07:22.760Z,8.7
2019-05-26T08:09:56.990Z,8.8
2019-05-26T08:12:30.988Z,12.4
2019-05-26T08:15:04.739Z,14.5
2019-05-26T08:17:39.178Z,10.1
2019-05-26T08:20:12.943Z,11.3
2019-05-26T08:22:46.920Z,8.3
2019-05-26T08:25:20.690Z,13.2
2019-05-26T08:27:54.568Z,13.5
2019-05-26T08:30:28.265Z,13.8
2019-05-26T08:33:02.305Z,14.7
2019-05-26T08:35:36.020Z,10.1
2019-05-26T08:38:10.223Z,19.7
2019-05-26T08:40:44.003Z,18.6
2019-05-26T08:43:18.124Z,18.4
2019-05-26T08:45:51.897Z,20.1
2019-05-26T08:48:25.839Z,20.1
2019-05-26T08:50:59.590Z,20.3
2019-05-26T08:53:33.503Z,20.7
2019-05-26T08:56:07.298Z,23.1
2019-05-26T08:58:41.093Z,19.6
2019-05-26T09:01:14.837Z,19.2
2019-05-26T09:03:48.968Z,20.8
2019-05-26T09:06:22.729Z,19.0
2019-05-26T09:08:56.503Z,18.1
2019-05-26T09:11:30.233Z,20.7
2019-05-26T09:14:04.241Z,19.3
2019-05-26T09:16:38.085Z,19.1
2019-05-26T09:19:12.097Z,17.5
2019-05-26T09:21:46.132Z,18.6
2019-05-26T09:24:19.943Z,16.8
2019-05-26T09:26:53.652Z,15.0
2019-05-26T09:29:27.506Z,16.7
2019-05-26T09:31:25.539Z,14.6
2019-05-26T09:33:59.321Z,14.4
2019-05-26T09:36:33.139Z,13.9
2019-05-26T09:39:06.866Z,15.4
2019-05-26T09:41:40.981Z,13.7
2019-05-26T09:44:14.680Z,13.0
2019-05-26T09:46:49.006Z,16.2
2019-05-26T09:49:22.689Z,12.4
2019-05-26T09:51:56.704Z,14.1
2019-05-26T09:54:30.346Z,13.8
2019-05-26T09:57:04.505Z,15.5
2019-05-26T09:59:38.202Z,15.8
2019-05-26T10:02:12.354Z,15.3
2019-05-26T10:04:44.683Z,15.3
2019-05-26T10:07:17.164Z,15.7
2019-05-26T10:09:49.407Z,13.7
2019-05-26T10:12:21.953Z,16.1
2019-05-26T10:14:54.156Z,15.6
2019-05-26T10:17:26.958Z,13.0
2019-05-26T10:19:59.216Z,14.0
2019-05-26T10:22:31.659Z,11.4
2019-05-26T10:25:03.852Z,13.9
2019-05-26T10:27:36.307Z,12.6
2019-05-26T10:30:08.382Z,14.2
2019-05-26T10:32:40.589Z,15.3
2019-05-26T10:35:12.903Z,20.2
2019-05-26T10:37:45.179Z,15.2
2019-05-26T10:40:17.426Z,16.3
2019-05-26T10:42:50.471Z,13.5
2019-05-26T10:45:23.070Z,16.6
2019-05-26T10:47:55.515Z,13.9
2019-05-26T10:50:27.814Z,14.5
2019-05-26T10:53:00.395Z,15.0
2019-05-26T10:55:33.160Z,11.9
2019-05-26T10:58:05.547Z,13.8
2019-05-26T11:00:37.778Z,11.9
2019-05-26T11:03:10.613Z,14.2
2019-05-26T11:05:43.005Z,13.3
2019-05-26T11:08:15.388Z,12.3
2019-05-26T11:10:47.562Z,13.5
2019-05-26T11:13:19.399Z,11.5
2019-05-26T11:15:51.007Z,12.6
2019-05-26T11:18:23.057Z,12.3
2019-05-26T11:20:54.877Z,12.0
2019-05-26T11:23:26.858Z,14.4
2019-05-26T11:25:58.420Z,12.4
2019-05-26T11:28:30.160Z,11.7
2019-05-26T11:31:26.430Z,10.7
2019-05-26T11:34:01.017Z,12.8
2019-05-26T11:36:33.496Z,9.2
2019-05-26T11:39:06.502Z,10.5
2019-05-26T11:41:38.924Z,11.4
2019-05-26T11:44:17.768Z,10.2
2019-05-26T11:46:50.945Z,11.3
2019-05-26T11:49:24.451Z,11.9
2019-05-26T11:51:57.392Z,10.9
2019-05-26T11:54:40.212Z,9.1
2019-05-26T11:57:12.496Z,6.9
2019-05-26T11:59:47.238Z,8.9
2019-05-26T12:02:19.805Z,8.4
2019-05-26T12:04:52.050Z,10.6
2019-05-26T12:07:24.283Z,10.4
2019-05-26T12:09:56.618Z,10.3
2019-05-26T12:12:28.734Z,9.7
2019-05-26T12:15:00.425Z,10.1
2019-05-26T12:17:32.264Z,7.0
2019-05-26T12:20:05.194Z,11.2
2019-05-26T12:22:37.326Z,11.6
2019-05-26T12:25:09.219Z,21.1
2019-05-26T12:27:41.095Z,11.5
2019-05-26T12:30:13.504Z,10.3
2019-05-26T12:32:45.325Z,10.6
2019-05-26T12:35:17.725Z,12.5
2019-05-26T12:37:49.687Z,10.8
2019-05-26T12:40:21.852Z,11.3
2019-05-26T12:42:53.884Z,9.9
2019-05-26T12:45:26.180Z,10.2
2019-05-26T12:47:58.420Z,9.8
2019-05-26T12:50:32.858Z,11.5
2019-05-26T12:53:04.693Z,9.2
2019-05-26T12:55:36.931Z,10.9
2019-05-26T12:58:08.828Z,8.7
2019-05-26T13:00:48.615Z,9.8
2019-05-26T13:03:21.166Z,12.1
2019-05-26T13:05:53.115Z,10.4
2019-05-26T13:08:24.911Z,10.5
2019-05-26T13:10:56.819Z,9.4
2019-05-26T13:13:28.429Z,7.2
2019-05-26T13:16:00.328Z,9.7
2019-05-26T13:18:32.102Z,9.5
2019-05-26T13:21:04.278Z,9.0
2019-05-26T13:23:35.841Z,10.9
2019-05-26T13:26:07.857Z,8.8
2019-05-26T13:28:39.543Z,8.6
2019-05-26T13:31:25.864Z,7.9
2019-05-26T13:33:58.247Z,9.7
2019-05-26T13:36:30.792Z,6.8
2019-05-26T13:39:03.059Z,9.2
2019-05-26T13:41:35.739Z,8.7
2019-05-26T13:44:08.004Z,7.6
2019-05-26T13:46:40.311Z,7.1
2019-05-26T13:49:12.547Z,7.4
2019-05-26T13:51:45.050Z,9.1
2019-05-26T13:54:17.255Z,8.3
2019-05-26T13:56:49.501Z,7.0
2019-05-26T13:59:21.704Z,8.0
2019-05-26T14:01:54.240Z,9.2
2019-05-26T14:04:26.394Z,8.0
2019-05-26T14:06:59.079Z,9.5
2019-05-26T14:09:31.396Z,9.0
2019-05-26T14:12:03.729Z,11.4
2019-05-26T14:14:35.905Z,9.0
2019-05-26T14:17:08.258Z,8.4
2019-05-26T14:19:40.512Z,8.8
2019-05-26T14:22:13.022Z,8.6
2019-05-26T14:24:53.586Z,8.9
2019-05-26T14:27:26.456Z,9.5
2019-05-26T14:29:58.620Z,8.3
2019-05-26T14:32:31.171Z,9.7
2019-05-26T14:35:03.369Z,9.7
2019-05-26T14:37:35.868Z,9.2
2019-05-26T14:40:08.086Z,8.8
2019-05-26T14:42:40.620Z,10.5
2019-05-26T14:45:12.867Z,12.5
2019-05-26T14:47:45.311Z,10.7
2019-05-26T14:50:18.023Z,13.6
2019-05-26T14:52:50.828Z,10.1
2019-05-26T14:55:23.154Z,9.6
2019-05-26T14:57:55.769Z,9.6
2019-05-26T15:00:28.134Z,9.9
2019-05-26T15:03:00.640Z,10.3
2019-05-26T15:05:32.814Z,10.3
2019-05-26T15:08:05.546Z,11.4
2019-05-26T15:10:37.696Z,12.1
2019-05-26T15:13:10.350Z,9.2
2019-05-26T15:15:43.066Z,10.2
2019-05-26T15:18:16.014Z,10.4
2019-05-26T15:20:48.873Z,11.8
2019-05-26T15:23:22.199Z,10.9
2019-05-26T15:25:55.016Z,13.4
2019-05-26T15:28:27.703Z,12.1
2019-05-26T15:31:25.907Z,11.5
2019-05-26T15:34:00.340Z,9.6
2019-05-26T15:36:34.237Z,12.8
2019-05-26T15:39:08.352Z,10.7
2019-05-26T15:41:42.569Z,10.9
2019-05-26T15:44:15.204Z,11.1
2019-05-26T15:46:47.914Z,12.5
2019-05-26T15:49:20.451Z,10.4
2019-05-26T15:51:53.137Z,11.3
2019-05-26T15:54:26.558Z,14.4
2019-05-26T15:56:59.363Z,13.8
2019-05-26T15:59:32.358Z,13.9
2019-05-26T16:02:04.636Z,11.9
2019-05-26T16:04:37.165Z,12.0
2019-05-26T16:07:09.791Z,11.3
2019-05-26T16:09:42.602Z,12.1
2019-05-26T16:12:15.015Z,12.9
2019-05-26T16:14:48.805Z,10.0
2019-05-26T16:17:21.545Z,11.4
2019-05-26T16:19:54.532Z,10.0
2019-05-26T16:22:27.399Z,10.0
2019-05-26T16:25:00.456Z,11.9
2019-05-26T16:27:33.456Z,9.4
2019-05-26T16:30:06.043Z,11.0
2019-05-26T16:32:38.603Z,12.6
2019-05-26T16:35:11.530Z,12.4
2019-05-26T16:37:46.136Z,11.8
2019-05-26T16:40:19.581Z,13.4
2019-05-26T16:42:52.440Z,8.6
2019-05-26T16:45:26.016Z,10.6
2019-05-26T16:47:58.760Z,9.1
2019-05-26T16:50:31.698Z,11.9
2019-05-26T16:53:05.394Z,9.8
2019-05-26T16:55:38.576Z,7.7
2019-05-26T16:58:12.552Z,9.2
2019-05-26T17:00:45.374Z,8.4
2019-05-26T17:03:18.116Z,9.4
2019-05-26T17:06:05.216Z,8.9
2019-05-26T17:08:32.027Z,9.5
2019-05-26T17:11:05.537Z,9.8
2019-05-26T17:13:38.300Z,8.7
2019-05-26T17:16:11.219Z,8.6
2019-05-26T17:18:44.493Z,8.1
2019-05-26T17:21:18.044Z,6.7
2019-05-26T17:23:50.833Z,5.3
2019-05-26T17:26:23.539Z,6.9
2019-05-26T17:28:56.690Z,5.6
2019-05-26T17:31:26.429Z,9.6
2019-05-26T17:33:59.222Z,6.5
2019-05-26T17:36:31.835Z,6.3
2019-05-26T17:39:04.310Z,8.1
2019-05-26T17:41:36.915Z,6.2
2019-05-26T17:44:09.347Z,7.9
2019-05-26T17:46:41.736Z,7.6
2019-05-26T17:49:13.959Z,6.2
2019-05-26T17:51:47.409Z,5.3
2019-05-26T17:54:19.889Z,5.7
2019-05-26T17:56:52.873Z,5.6
2019-05-26T17:59:25.241Z,5.1
2019-05-26T18:01:57.862Z,6.7
2019-05-26T18:04:30.364Z,6.2
2019-05-26T18:07:02.982Z,5.5
2019-05-26T18:09:43.532Z,8.9
2019-05-26T18:12:23.281Z,5.4
2019-05-26T18:14:57.809Z,7.6
2019-05-26T18:17:45.763Z,5.2
2019-05-26T18:20:11.485Z,5.7
2019-05-26T18:22:44.077Z,7.2
2019-05-26T18:25:16.872Z,6.5
2019-05-26T18:27:49.463Z,5.6
2019-05-26T18:30:21.942Z,10.1
2019-05-26T18:32:54.492Z,22.9
2019-05-26T18:35:26.841Z,27.8
2019-05-26T18:37:59.136Z,13.8
2019-05-26T18:40:31.596Z,11.6
2019-05-26T18:43:04.047Z,9.3
2019-05-26T18:45:36.352Z,11.2
2019-05-26T18:48:08.875Z,9.0
2019-05-26T18:50:41.175Z,9.5
2019-05-26T18:53:13.622Z,9.7
2019-05-26T18:55:46.003Z,8.9
2019-05-26T18:58:18.539Z,8.5
2019-05-26T19:00:51.551Z,9.4
2019-05-26T19:03:24.841Z,8.9
2019-05-26T19:05:58.099Z,8.6
2019-05-26T19:08:31.701Z,11.3
2019-05-26T19:11:04.476Z,7.7
2019-05-26T19:13:37.192Z,8.2
2019-05-26T19:16:10.030Z,7.9
2019-05-26T19:18:42.684Z,8.4
2019-05-26T19:21:14.802Z,7.1
2019-05-26T19:23:47.291Z,13.5
2019-05-26T19:26:19.534Z,12.7
2019-05-26T19:28:52.285Z,7.3
2019-05-26T19:31:26.734Z,7.3
2019-05-26T19:34:00.935Z,7.7
2019-05-26T19:36:35.165Z,10.7
2019-05-26T19:39:07.498Z,7.2
2019-05-26T19:41:39.653Z,9.3
2019-05-26T19:44:12.798Z,7.6
2019-05-26T19:46:45.145Z,7.1
2019-05-26T19:49:17.559Z,8.5
2019-05-26T19:51:49.906Z,10.9
2019-05-26T19:54:22.524Z,8.7
2019-05-26T19:56:54.819Z,8.1
2019-05-26T19:59:27.904Z,7.3
2019-05-26T20:02:15.045Z,11.2
2019-05-26T20:04:41.057Z,8.0
2019-05-26T20:07:13.391Z,8.4
2019-05-26T20:09:45.244Z,11.5
2019-05-26T20:12:16.935Z,9.3
2019-05-26T20:14:48.763Z,10.0
2019-05-26T20:17:20.712Z,9.8
2019-05-26T20:19:53.065Z,9.9
2019-05-26T20:22:24.974Z,9.7
2019-05-26T20:24:57.392Z,11.4
2019-05-26T20:27:29.494Z,8.1
2019-05-26T20:30:02.110Z,12.8
2019-05-26T20:32:34.164Z,7.8
2019-05-26T20:35:06.155Z,8.0
2019-05-26T20:37:37.949Z,8.9
2019-05-26T20:40:10.095Z,11.5
2019-05-26T20:42:44.543Z,8.5
2019-05-26T20:45:18.159Z,8.9
2019-05-26T20:47:50.830Z,7.5
2019-05-26T20:50:28.951Z,7.5
2019-05-26T20:53:02.240Z,6.5
2019-05-26T20:55:34.019Z,10.0
2019-05-26T20:58:05.709Z,8.1
2019-05-26T21:00:37.838Z,6.3
2019-05-26T21:03:09.402Z,6.7
2019-05-26T21:05:41.354Z,7.9
2019-05-26T21:08:12.965Z,7.5
2019-05-26T21:10:44.752Z,10.6
2019-05-26T21:13:16.365Z,12.0
2019-05-26T21:15:48.556Z,8.7
2019-05-26T21:18:20.151Z,9.4
2019-05-26T21:20:51.900Z,8.4
2019-05-26T21:23:23.555Z,8.8
2019-05-26T21:25:55.210Z,8.1
2019-05-26T21:28:26.743Z,6.7
2019-05-26T21:31:26.674Z,7.2
2019-05-26T21:34:00.409Z,6.2
2019-05-26T21:36:34.217Z,6.1
2019-05-26T21:39:08.062Z,8.5
2019-05-26T21:41:41.843Z,6.1
2019-05-26T21:44:15.630Z,8.5
2019-05-26T21:46:49.867Z,6.6
2019-05-26T21:49:23.691Z,6.4
2019-05-26T21:51:57.606Z,5.1
2019-05-26T21:54:31.337Z,7.9
2019-05-26T21:57:05.225Z,6.1
2019-05-26T21:59:38.959Z,9.2
2019-05-26T22:02:13.197Z,6.8
2019-05-26T22:04:45.484Z,5.4
2019-05-26T22:07:18.024Z,6.9
2019-05-26T22:09:50.253Z,9.2
2019-05-26T22:12:22.617Z,4.8
2019-05-26T22:14:54.835Z,6.4
2019-05-26T22:17:27.421Z,6.4
2019-05-26T22:19:59.771Z,6.3
2019-05-26T22:22:32.301Z,5.8
2019-05-26T22:25:04.562Z,5.3
2019-05-26T22:27:36.963Z,4.9
2019-05-26T22:30:09.300Z,5.3
2019-05-26T22:32:41.702Z,6.0
2019-05-26T22:35:14.032Z,4.6
2019-05-26T22:37:46.553Z,8.2
2019-05-26T22:40:19.012Z,5.6
2019-05-26T22:42:52.498Z,6.7
2019-05-26T22:45:25.563Z,5.5
2019-05-26T22:47:58.268Z,7.4
2019-05-26T22:50:31.107Z,6.2
2019-05-26T22:53:03.970Z,8.8
2019-05-26T22:55:36.213Z,7.5
2019-05-26T22:58:08.625Z,6.2
2019-05-26T23:00:40.941Z,5.9
2019-05-26T23:03:13.608Z,6.9
2019-05-26T23:05:45.679Z,6.1
2019-05-26T23:08:17.374Z,6.0
2019-05-26T23:10:48.985Z,10.8
2019-05-26T23:13:21.026Z,5.1
2019-05-26T23:15:52.653Z,7.6
2019-05-26T23:18:24.503Z,5.1
2019-05-26T23:20:56.218Z,5.6
2019-05-26T23:23:28.013Z,5.4
2019-05-26T23:25:59.598Z,6.6
2019-05-26T23:28:31.455Z,5.9
2019-05-26T23:31:25.398Z,6.5
2019-05-26T23:33:59.600Z,5.4
2019-05-26T23:36:31.825Z,6.8
2019-05-26T23:39:04.270Z,9.2
2019-05-26T23:41:36.721Z,5.4
2019-05-26T23:44:09.241Z,6.9
2019-05-26T23:46:41.557Z,7.4
2019-05-26T23:49:13.965Z,6.6
2019-05-26T23:51:46.314Z,6.5
2019-05-26T23:54:18.735Z,8.1
2019-05-26T23:56:50.935Z,7.6
2019-05-26T23:59:23.395Z,9.3
